createdAt,value
2023-05-07T09:24:06.173Z,143206.97
2023-05-07T09:29:14.119Z,143348.47
2023-05-07T09:34:18.693Z,143369.56
2023-05-07T09:39:25.069Z,143414.25
2023-05-07T09:44:29.225Z,143377.00
2023-05-07T09:49:35.393Z,143250.38
2023-05-07T09:54:44.703Z,143220.59
2023-05-07T09:59:49.244Z,143226.84
2023-05-07T10:04:56.781Z,143220.59
2023-05-07T10:10:08.073Z,143434.13
2023-05-07T10:15:16.411Z,143503.66
2023-05-07T10:20:24.284Z,143432.88
2023-05-07T10:25:30.905Z,143632.88
2023-05-07T10:30:43.529Z,143785.72
2023-05-07T10:35:48.960Z,143666.41
2023-05-07T10:40:54.778Z,143598.09
2023-05-07T10:46:17.465Z,143517.34
2023-05-07T10:51:33.578Z,143437.84
2023-05-07T11:04:49.365Z,143666.41
2023-05-07T11:10:30.628Z,143589.34
2023-05-07T11:15:39.165Z,143830.50
2023-05-07T11:20:51.342Z,143810.59
2023-05-07T11:26:33.605Z,143875.31
2023-05-07T11:31:37.781Z,143727.31
2023-05-07T11:36:48.617Z,143711.19
2023-05-07T11:41:57.659Z,143596.84
2023-05-07T11:47:03.344Z,143564.56
2023-05-07T11:52:06.858Z,143620.47
2023-05-07T11:57:17.870Z,143627.91
2023-05-07T12:02:21.356Z,143687.56
2023-05-07T12:07:25.893Z,143844.16
2023-05-07T12:12:32.756Z,143901.44
2023-05-07T12:17:36.201Z,143920.03
2023-05-07T12:22:39.588Z,143956.09
2023-05-07T12:27:44.177Z,143859.13
2023-05-07T12:32:47.756Z,143796.94
2023-05-07T12:37:56.681Z,143728.56
2023-05-07T12:43:01.411Z,143800.69
2023-05-07T12:48:06.963Z,143785.72
2023-05-07T12:53:12.033Z,143738.53
2023-05-07T12:58:19.779Z,143718.63
2023-05-07T13:03:26.021Z,143809.38
2023-05-07T13:08:30.140Z,143867.81
2023-05-07T13:13:35.529Z,143925.00
2023-05-07T13:18:40.565Z,143918.81
2023-05-07T13:23:44.144Z,143973.53
2023-05-07T13:28:50.254Z,143932.50
2023-05-07T13:33:53.751Z,143927.50
2023-05-07T13:38:57.180Z,143887.72
2023-05-07T13:44:04.678Z,143839.19
2023-05-07T13:49:08.144Z,143790.75
2023-05-07T13:54:12.091Z,143885.22
2023-05-07T13:59:16.986Z,143987.25
2023-05-07T14:04:20.649Z,144009.63
2023-05-07T14:09:24.259Z,144134.09
2023-05-07T14:14:29.171Z,143969.81
2023-05-07T14:19:32.541Z,144004.66
2023-05-07T14:24:38.608Z,143888.97
2023-05-07T14:29:46.497Z,143819.34
2023-05-07T14:34:49.794Z,143933.75
2023-05-07T14:39:53.333Z,144018.34
2023-05-07T14:44:58.077Z,143953.63
2023-05-07T14:50:06.509Z,143840.44
2023-05-07T14:55:10.721Z,143905.16
2023-05-07T15:00:16.199Z,143959.88
2023-05-07T15:05:20.646Z,143988.50
2023-05-07T15:10:28.582Z,143881.50
2023-05-07T15:15:36.392Z,143794.47
2023-05-07T15:20:40.661Z,143855.38
2023-05-07T15:25:47.233Z,143824.31
2023-05-07T15:30:56.321Z,143823.06
2023-05-07T15:36:06.108Z,143772.06
2023-05-07T15:41:12.151Z,143733.56
2023-05-07T15:46:19.259Z,143723.59
2023-05-07T15:51:22.778Z,143748.44
2023-05-07T15:56:26.300Z,143712.41
2023-05-07T16:01:31.357Z,143718.63
2023-05-07T16:06:37.661Z,143697.47
2023-05-07T16:11:43.320Z,143666.41
2023-05-07T16:16:50.128Z,143622.94
2023-05-07T16:21:53.580Z,143560.78
2023-05-07T16:26:56.910Z,143626.66
2023-05-07T16:32:01.698Z,143637.84
2023-05-07T16:37:05.597Z,143567.03
2023-05-07T16:42:08.863Z,143568.28
2023-05-07T16:47:13.532Z,143554.59
2023-05-07T16:52:16.875Z,143549.63
2023-05-07T16:57:20.164Z,143490.00
2023-05-07T17:02:24.910Z,143454.00
2023-05-07T17:07:28.284Z,143411.75
2023-05-07T17:12:32.590Z,143317.44
2023-05-07T17:17:37.366Z,143288.88
2023-05-07T17:22:40.726Z,143264.06
2023-05-07T17:27:44.025Z,143234.28
2023-05-07T17:32:50.904Z,143250.38
2023-05-07T17:37:54.321Z,143224.38
2023-05-07T17:43:00.001Z,143215.66
2023-05-07T17:48:04.864Z,143190.84
2023-05-07T17:53:09.799Z,143198.31
2023-05-07T17:58:15.800Z,143193.31
2023-05-07T18:03:20.617Z,143194.59
2023-05-07T18:08:24.182Z,143175.97
2023-05-07T18:13:27.576Z,143163.53
2023-05-07T18:18:35.430Z,143154.88
2023-05-07T18:23:38.747Z,143141.25
2023-05-07T18:28:42.102Z,143090.38
2023-05-07T18:33:51.915Z,143035.81
2023-05-07T18:38:55.221Z,143001.09
2023-05-07T18:43:58.532Z,142950.28
2023-05-07T18:49:03.579Z,142908.09
2023-05-07T18:54:06.983Z,142874.66
2023-05-07T18:59:10.319Z,142862.28
2023-05-07T19:04:16.362Z,142821.38
2023-05-07T19:09:19.873Z,142817.66
2023-05-07T19:14:25.678Z,142806.53
2023-05-07T19:19:30.413Z,142811.47
2023-05-07T19:24:34.414Z,142809.00
2023-05-07T19:29:37.782Z,142778.03
2023-05-07T19:34:42.430Z,142749.53
2023-05-07T19:39:46.173Z,142726.00
2023-05-07T19:44:51.856Z,142692.56
2023-05-07T19:49:59.502Z,142662.84
2023-05-07T19:55:02.895Z,142634.38
2023-05-07T20:00:09.880Z,142623.19
2023-05-07T20:05:21.301Z,142612.06
2023-05-07T20:10:24.656Z,142584.84
2023-05-07T20:15:27.996Z,142563.78
2023-05-07T20:20:32.746Z,142537.84
2023-05-07T20:25:36.171Z,142489.59
2023-05-07T20:30:41.838Z,142471.03
2023-05-07T20:35:46.684Z,142452.44
2023-05-07T20:40:50.391Z,142412.88
2023-05-07T20:46:00.410Z,142389.38
2023-05-07T20:51:10.351Z,142357.22
2023-05-07T20:56:13.671Z,142334.94
2023-05-07T21:01:17.307Z,142332.47
2023-05-07T21:06:22.082Z,142346.06
2023-05-07T21:11:25.536Z,142323.81
2023-05-07T21:16:28.907Z,142307.72
2023-05-07T21:21:33.611Z,142304.03
2023-05-07T21:26:36.897Z,142287.94
